Search for airport 
image banner adimage banner ad
image banner ad

EVSM - Lielvarde M Sola

Located in Lielvarde, Latvia

ICAO - , IATA -

Data provided by Airmate  

General information

Coordinates: N56°39'59" E24°54'11"
Elevation is 142 feet MSL.
Magnetic variation is 7° East
View others Airports in Ogre District

Operational data

Open for public use
Current time UTC:
Current local time:
Weather at : EVRA - Riga ( 64 km )
METAR: EVRA 030420Z 14006KT 9999 BKN010 OVC019 M01/M03 Q1021 R18/310195 NOSIG
TAF: TAF EVRA 030200Z 0303/0403 14007KT 9000 OVC010 TEMPO 0303/0309 BKN005 BKN012 BECMG 0309/0311 BKN015
View NOTAMs / SUP AIP / TFR affecting this airport [VIEW]
Communications frequencies: [VIEW]

Runways:

Airport contact information

Address: Lielvarde Latvia

Satellite view of EVSM